Time;durP1;ratioP1;P1;durP2;ratioP2;P2;SDS_P1;SDS_P2;PMS_P1;PMS_P2;Temp;Humidity;BMP_temperature;BMP_pressure;BME280_temperature;BME280_humidity;BME280_pressure;Samples;Min_cycle;Max_cycle;Signal;HPM_P1;HPM_P2
2023/07/30 00:00:40;;;;;;;0.00;0.00;;;17.60;87.10;;;;;;4970941;28;20113;-73
2023/07/30 00:03:06;;;;;;;0.00;0.00;;;17.60;87.20;;;;;;4971351;28;20050;-73
2023/07/30 00:05:31;;;;;;;0.00;0.00;;;17.60;87.60;;;;;;4969654;28;20083;-73
2023/07/30 00:07:57;;;;;;;0.00;0.00;;;17.50;87.60;;;;;;4970956;28;20411;-73
2023/07/30 00:10:23;;;;;;;0.00;0.00;;;17.60;87.40;;;;;;4971372;28;20563;-73
2023/07/30 00:12:48;;;;;;;0.00;0.00;;;17.50;87.50;;;;;;4971058;28;20073;-73
2023/07/30 00:15:14;;;;;;;0.00;0.00;;;17.60;87.60;;;;;;4971191;28;20051;-74
2023/07/30 00:17:39;;;;;;;0.00;0.00;;;17.50;87.40;;;;;;4953917;28;20156;-73
2023/07/30 00:20:07;;;;;;;0.00;0.00;;;17.50;87.80;;;;;;4970683;28;20392;-73
2023/07/30 00:22:33;;;;;;;0.00;0.00;;;17.50;88.00;;;;;;4969969;28;20891;-74
2023/07/30 00:24:59;;;;;;;0.00;0.00;;;17.50;88.10;;;;;;4969455;28;20074;-74
2023/07/30 00:27:24;;;;;;;0.00;0.00;;;17.50;88.10;;;;;;4971221;28;20043;-73
2023/07/30 00:29:50;;;;;;;0.00;0.00;;;17.50;88.00;;;;;;4971025;28;20134;-73
2023/07/30 00:32:16;;;;;;;0.30;0.30;;;17.60;87.90;;;;;;4970857;28;20058;-73
2023/07/30 00:34:42;;;;;;;0.47;0.35;;;17.60;88.00;;;;;;4970921;28;20062;-74
2023/07/30 00:37:08;;;;;;;0.10;0.10;;;17.60;88.10;;;;;;4970662;28;20047;-73
2023/07/30 00:39:33;;;;;;;0.00;0.00;;;17.60;88.30;;;;;;4971080;28;20059;-73
2023/07/30 00:41:59;;;;;;;0.03;0.03;;;17.60;88.00;;;;;;4969480;28;20053;-74
2023/07/30 00:44:24;;;;;;;0.00;0.00;;;17.60;88.30;;;;;;4969691;28;20043;-73
2023/07/30 00:46:50;;;;;;;0.35;0.35;;;17.60;88.10;;;;;;4970385;28;20061;-74
2023/07/30 00:49:16;;;;;;;0.00;0.00;;;17.60;88.30;;;;;;4969800;28;20062;-73
2023/07/30 00:51:43;;;;;;;0.00;0.00;;;17.60;88.30;;;;;;4970340;28;20141;-74
2023/07/30 00:54:09;;;;;;;0.00;0.00;;;17.60;88.20;;;;;;4970698;28;20050;-74
2023/07/30 00:56:36;;;;;;;0.10;0.10;;;17.60;88.30;;;;;;4972593;28;20082;-73
2023/07/30 00:59:02;;;;;;;0.00;0.00;;;17.60;88.20;;;;;;4971013;28;20038;-73
2023/07/30 01:01:28;;;;;;;0.03;0.03;;;17.60;88.50;;;;;;4971118;28;20043;-73
2023/07/30 01:03:54;;;;;;;0.00;0.00;;;17.60;88.60;;;;;;4970952;28;20129;-73
2023/07/30 01:06:20;;;;;;;0.00;0.00;;;17.70;88.30;;;;;;4971151;28;20118;-74
2023/07/30 01:08:46;;;;;;;0.00;0.00;;;17.70;88.60;;;;;;4969110;28;20050;-74
2023/07/30 01:11:14;;;;;;;0.43;0.43;;;17.70;88.70;;;;;;4969845;28;20050;-74
2023/07/30 01:13:41;;;;;;;0.00;0.00;;;17.70;88.80;;;;;;4971108;28;20427;-74
2023/07/30 01:16:06;;;;;;;0.00;0.00;;;17.70;88.70;;;;;;4970261;28;20055;-74
2023/07/30 01:18:32;;;;;;;0.00;0.00;;;17.80;88.70;;;;;;4969298;28;20047;-74
2023/07/30 01:20:59;;;;;;;0.00;0.00;;;17.70;88.40;;;;;;4970349;28;20417;-74
2023/07/30 01:23:25;;;;;;;0.00;0.00;;;17.80;88.00;;;;;;4971134;28;20105;-74
2023/07/30 01:26:02;;;;;;;0.00;0.00;;;17.80;88.80;;;;;;4969678;28;20051;-74
2023/07/30 01:28:35;;;;;;;0.30;0.30;;;17.70;88.90;;;;;;4970078;28;20051;-74
2023/07/30 01:31:02;;;;;;;0.38;0.38;;;17.70;88.80;;;;;;4969840;28;20546;-74
2023/07/30 01:33:29;;;;;;;0.00;0.00;;;17.70;88.90;;;;;;4972232;28;20126;-74
2023/07/30 01:35:57;;;;;;;0.00;0.00;;;17.60;88.80;;;;;;4971942;28;20047;-74
2023/07/30 01:38:23;;;;;;;1.15;0.30;;;17.60;88.60;;;;;;4972498;28;20130;-74
2023/07/30 01:40:49;;;;;;;0.00;0.00;;;17.60;89.50;;;;;;4973685;28;20078;-74
2023/07/30 01:43:15;;;;;;;0.08;0.08;;;17.60;89.20;;;;;;4974005;28;20482;-74
2023/07/30 01:45:41;;;;;;;0.10;0.10;;;17.60;89.00;;;;;;4973761;28;20039;-74
2023/07/30 01:48:06;;;;;;;0.65;0.65;;;17.60;89.00;;;;;;4973774;28;20566;-74
2023/07/30 01:50:32;;;;;;;0.00;0.00;;;17.60;89.00;;;;;;4972405;28;20097;-74
2023/07/30 01:52:57;;;;;;;0.00;0.00;;;17.60;89.00;;;;;;4955983;28;20054;-74
2023/07/30 01:55:23;;;;;;;0.00;0.00;;;17.60;88.90;;;;;;4972383;28;20043;-74
2023/07/30 01:57:48;;;;;;;0.00;0.00;;;17.60;88.90;;;;;;4973490;28;20034;-74
2023/07/30 02:00:14;;;;;;;0.00;0.00;;;17.60;88.80;;;;;;4973598;28;20058;-74
2023/07/30 02:02:40;;;;;;;0.73;0.63;;;17.60;88.50;;;;;;4971876;28;20074;-74
2023/07/30 02:05:05;;;;;;;0.00;0.00;;;17.60;88.80;;;;;;4973746;28;20499;-74
2023/07/30 02:07:31;;;;;;;0.00;0.00;;;17.60;88.70;;;;;;4973107;28;20406;-73
2023/07/30 02:09:57;;;;;;;0.00;0.00;;;17.60;88.70;;;;;;4973224;28;20053;-74
2023/07/30 02:12:22;;;;;;;0.00;0.00;;;17.60;88.50;;;;;;4973096;28;20046;-74
2023/07/30 02:14:48;;;;;;;0.00;0.00;;;17.60;88.70;;;;;;4973838;28;20479;-74
2023/07/30 02:17:14;;;;;;;0.00;0.00;;;17.50;89.00;;;;;;4973006;28;20059;-74
2023/07/30 02:19:40;;;;;;;0.45;0.45;;;17.60;89.10;;;;;;4972958;28;20090;-74
2023/07/30 02:22:05;;;;;;;0.10;0.10;;;17.50;88.90;;;;;;4973315;28;20478;-73
2023/07/30 02:24:31;;;;;;;0.00;0.00;;;17.50;88.80;;;;;;4971852;28;20403;-73
2023/07/30 02:26:56;;;;;;;0.00;0.00;;;17.50;88.80;;;;;;4971374;28;20039;-74
2023/07/30 02:29:22;;;;;;;0.00;0.00;;;17.50;88.90;;;;;;4973124;28;20055;-74
2023/07/30 02:31:47;;;;;;;0.00;0.00;;;17.50;88.80;;;;;;4973129;28;20444;-73
2023/07/30 02:34:13;;;;;;;0.00;0.00;;;17.50;88.90;;;;;;4972840;28;20159;-73
2023/07/30 02:36:38;;;;;;;0.00;0.00;;;17.50;88.80;;;;;;4971585;28;20055;-74
2023/07/30 02:39:04;;;;;;;0.00;0.00;;;17.40;88.80;;;;;;4972458;28;20085;-74
2023/07/30 02:41:30;;;;;;;0.00;0.00;;;17.40;88.80;;;;;;4972700;28;20043;-73
2023/07/30 02:43:55;;;;;;;0.00;0.00;;;17.40;88.80;;;;;;4972114;28;20047;-73
2023/07/30 02:46:21;;;;;;;0.00;0.00;;;17.40;88.70;;;;;;4972199;28;20101;-73
2023/07/30 02:48:46;;;;;;;0.00;0.00;;;17.40;88.80;;;;;;4971999;28;20051;-73
2023/07/30 02:51:12;;;;;;;0.00;0.00;;;17.40;88.70;;;;;;4972610;28;20554;-73
2023/07/30 02:53:37;;;;;;;0.00;0.00;;;17.40;88.60;;;;;;4972639;28;20054;-74
2023/07/30 02:56:03;;;;;;;0.00;0.00;;;17.40;88.90;;;;;;4972603;28;20046;-74
2023/07/30 02:58:28;;;;;;;0.00;0.00;;;17.40;88.80;;;;;;4971756;28;20042;-74
2023/07/30 03:00:54;;;;;;;0.00;0.00;;;17.40;88.80;;;;;;4972791;28;20122;-73
2023/07/30 03:03:20;;;;;;;1.20;1.10;;;17.40;88.80;;;;;;4971727;28;20046;-73
2023/07/30 03:05:46;;;;;;;0.00;0.00;;;17.40;89.30;;;;;;4972769;28;20055;-74
2023/07/30 03:08:11;;;;;;;0.00;0.00;;;17.40;89.20;;;;;;4971842;28;20046;-73
2023/07/30 03:10:37;;;;;;;0.00;0.00;;;17.40;89.10;;;;;;4972671;28;20499;-74
2023/07/30 03:13:02;;;;;;;0.00;0.00;;;17.30;88.90;;;;;;4971925;28;20845;-73
2023/07/30 03:15:28;;;;;;;0.00;0.00;;;17.30;88.80;;;;;;4972429;28;20126;-73
2023/07/30 03:17:53;;;;;;;0.00;0.00;;;17.30;88.80;;;;;;4970282;28;20108;-73
2023/07/30 03:20:19;;;;;;;0.00;0.00;;;17.30;88.80;;;;;;4971020;28;20058;-74
2023/07/30 03:22:44;;;;;;;0.00;0.00;;;17.30;88.70;;;;;;4972081;28;20054;-73
2023/07/30 03:25:10;;;;;;;0.00;0.00;;;17.30;88.70;;;;;;4970272;28;20047;-73
2023/07/30 03:27:35;;;;;;;0.00;0.00;;;17.30;88.70;;;;;;4970826;28;20125;-74
2023/07/30 03:30:01;;;;;;;0.00;0.00;;;17.20;88.60;;;;;;4970771;28;20703;-74
2023/07/30 03:32:27;;;;;;;0.00;0.00;;;17.20;88.60;;;;;;4971868;28;20053;-73
2023/07/30 03:34:53;;;;;;;0.00;0.00;;;17.20;88.40;;;;;;4972025;28;20051;-73
2023/07/30 03:37:18;;;;;;;0.08;0.08;;;17.20;88.30;;;;;;4971602;28;20855;-73
2023/07/30 03:39:44;;;;;;;0.00;0.00;;;17.20;88.10;;;;;;4971737;28;20038;-74
2023/07/30 03:42:09;;;;;;;0.00;0.00;;;17.20;87.80;;;;;;4970273;28;20045;-73
2023/07/30 03:44:35;;;;;;;0.00;0.00;;;17.10;87.50;;;;;;4971636;28;20046;-73
2023/07/30 03:47:00;;;;;;;0.00;0.00;;;17.10;87.20;;;;;;4971438;28;20070;-73
2023/07/30 03:49:26;;;;;;;0.00;0.00;;;17.10;86.80;;;;;;4971199;28;20046;-73
2023/07/30 03:51:52;;;;;;;0.00;0.00;;;17.10;86.40;;;;;;4971545;28;20136;-73
2023/07/30 03:54:17;;;;;;;0.00;0.00;;;17.10;86.00;;;;;;4971868;28;20043;-74
2023/07/30 03:56:43;;;;;;;0.00;0.00;;;17.10;85.90;;;;;;4970984;28;20141;-74
2023/07/30 03:59:08;;;;;;;0.00;0.00;;;17.10;85.80;;;;;;4971161;28;20042;-73
2023/07/30 04:01:35;;;;;;;0.00;0.00;;;17.10;85.50;;;;;;4971324;28;20047;-74
2023/07/30 04:04:01;;;;;;;0.00;0.00;;;17.00;85.20;;;;;;4971977;28;20398;-74
2023/07/30 04:06:27;;;;;;;0.00;0.00;;;17.10;85.10;;;;;;4970961;28;20113;-73
2023/07/30 04:08:52;;;;;;;0.00;0.00;;;17.10;85.00;;;;;;4970695;28;20081;-73
2023/07/30 04:11:18;;;;;;;0.00;0.00;;;17.10;84.80;;;;;;4971937;28;20137;-74
2023/07/30 04:13:43;;;;;;;0.10;0.10;;;17.10;84.80;;;;;;4970762;28;20129;-74
2023/07/30 04:16:09;;;;;;;0.00;0.00;;;17.10;84.40;;;;;;4971300;28;20094;-73
2023/07/30 04:18:34;;;;;;;0.00;0.00;;;17.10;84.10;;;;;;4970381;28;20545;-74
2023/07/30 04:21:00;;;;;;;0.00;0.00;;;17.10;83.70;;;;;;4969298;28;20106;-74
2023/07/30 04:23:25;;;;;;;0.00;0.00;;;17.10;83.90;;;;;;4970789;28;20043;-73
2023/07/30 04:25:51;;;;;;;1.35;0.60;;;17.10;83.70;;;;;;4970785;28;20042;-73
2023/07/30 04:28:17;;;;;;;0.00;0.00;;;17.10;83.70;;;;;;4968884;28;20047;-74
2023/07/30 04:30:43;;;;;;;0.00;0.00;;;17.10;83.60;;;;;;4970179;28;20035;-74
2023/07/30 04:33:09;;;;;;;0.05;0.05;;;17.20;83.30;;;;;;4970620;28;20415;-74
2023/07/30 04:35:34;;;;;;;0.00;0.00;;;17.10;83.30;;;;;;4969290;28;20038;-74
2023/07/30 04:38:00;;;;;;;0.00;0.00;;;17.20;83.30;;;;;;4970662;28;20519;-73
2023/07/30 04:40:26;;;;;;;0.00;0.00;;;17.20;83.10;;;;;;4970081;28;20051;-74
2023/07/30 04:42:51;;;;;;;0.00;0.00;;;17.20;82.60;;;;;;4969694;28;20064;-74
2023/07/30 04:45:17;;;;;;;0.00;0.00;;;17.20;82.80;;;;;;4970440;28;20039;-74
2023/07/30 04:47:42;;;;;;;0.00;0.00;;;17.20;82.70;;;;;;4970603;28;20109;-74
2023/07/30 04:50:08;;;;;;;0.00;0.00;;;17.30;82.90;;;;;;4970324;28;20098;-74
2023/07/30 04:52:34;;;;;;;1.75;0.90;;;17.30;82.20;;;;;;4970184;28;20105;-74
2023/07/30 04:54:59;;;;;;;0.00;0.00;;;17.30;82.40;;;;;;4970278;28;20039;-74
2023/07/30 04:57:25;;;;;;;0.00;0.00;;;17.20;81.80;;;;;;4969971;28;20053;-74
2023/07/30 04:59:51;;;;;;;0.00;0.00;;;17.30;82.00;;;;;;4970175;28;20043;-74
2023/07/30 05:02:17;;;;;;;0.20;0.13;;;17.30;81.40;;;;;;4969349;28;20046;-73
2023/07/30 05:04:42;;;;;;;0.00;0.00;;;17.30;81.40;;;;;;4969775;28;20491;-74
2023/07/30 05:07:08;;;;;;;0.00;0.00;;;17.30;81.40;;;;;;4969429;28;20399;-74
2023/07/30 05:09:33;;;;;;;0.00;0.00;;;17.30;80.50;;;;;;4969864;28;20502;-74
2023/07/30 05:11:59;;;;;;;0.00;0.00;;;17.30;80.70;;;;;;4968237;28;20039;-74
2023/07/30 05:14:24;;;;;;;0.10;0.10;;;17.30;80.10;;;;;;4970034;28;20047;-74
2023/07/30 05:16:50;;;;;;;0.00;0.00;;;17.30;80.40;;;;;;4968393;28;20047;-74
2023/07/30 05:19:16;;;;;;;0.00;0.00;;;17.30;80.30;;;;;;4983197;23;20363;-75
2023/07/30 05:21:42;;;;;;;0.00;0.00;;;17.40;80.60;;;;;;5042143;23;20410;-73
2023/07/30 05:24:08;;;;;;;0.00;0.00;;;17.40;80.60;;;;;;5007326;28;20691;-76
2023/07/30 05:26:34;;;;;;;0.22;0.22;;;17.40;80.40;;;;;;5004399;28;20050;-73
2023/07/30 05:28:59;;;;;;;0.00;0.00;;;17.50;80.40;;;;;;5002756;28;20344;-73
2023/07/30 05:31:26;;;;;;;0.00;0.00;;;17.50;80.50;;;;;;4997691;28;20041;-73
2023/07/30 05:33:51;;;;;;;0.00;0.00;;;17.60;80.10;;;;;;5006462;28;20452;-73
2023/07/30 05:36:17;;;;;;;0.00;0.00;;;17.50;79.80;;;;;;5001193;28;20034;-73
2023/07/30 05:38:42;;;;;;;0.00;0.00;;;17.50;79.40;;;;;;4995821;28;20046;-73
2023/07/30 05:41:08;;;;;;;0.00;0.00;;;17.50;79.40;;;;;;5003627;28;20058;-73
2023/07/30 05:43:34;;;;;;;0.60;0.55;;;17.60;79.70;;;;;;4996494;28;20042;-72
2023/07/30 05:45:59;;;;;;;0.00;0.00;;;17.50;79.60;;;;;;4992656;28;20046;-73
2023/07/30 05:48:25;;;;;;;0.28;0.28;;;17.60;79.70;;;;;;5003942;28;20133;-73
2023/07/30 05:50:50;;;;;;;0.25;0.25;;;17.60;79.40;;;;;;4994033;28;20506;-73
2023/07/30 05:53:16;;;;;;;1.38;1.10;;;17.50;79.50;;;;;;4994936;28;20384;-73
2023/07/30 05:55:41;;;;;;;0.00;0.00;;;17.60;79.70;;;;;;5003283;28;20042;-72
2023/07/30 05:58:07;;;;;;;0.00;0.00;;;17.60;79.90;;;;;;4989046;28;20070;-72
2023/07/30 06:00:32;;;;;;;0.00;0.00;;;17.60;79.80;;;;;;5005338;28;20528;-71
2023/07/30 06:02:58;;;;;;;0.00;0.00;;;17.70;79.90;;;;;;5004850;28;20096;-73
2023/07/30 06:05:24;;;;;;;0.30;0.30;;;17.70;79.70;;;;;;4993733;28;20116;-74
2023/07/30 06:07:49;;;;;;;0.80;0.70;;;17.70;79.00;;;;;;5003833;28;20050;-73
2023/07/30 06:10:15;;;;;;;0.00;0.00;;;17.60;79.10;;;;;;5007389;28;20073;-73
2023/07/30 06:12:40;;;;;;;0.00;0.00;;;17.70;79.10;;;;;;5008815;28;20053;-73
2023/07/30 06:15:09;;;;;;;0.00;0.00;;;17.70;79.00;;;;;;5008468;28;20157;-74
2023/07/30 06:17:34;;;;;;;0.00;0.00;;;17.70;79.10;;;;;;5007340;28;20557;-73
2023/07/30 06:20:00;;;;;;;0.00;0.00;;;17.70;79.30;;;;;;5011212;28;20057;-74
2023/07/30 06:22:26;;;;;;;0.00;0.00;;;17.70;78.90;;;;;;5011865;28;20089;-73
2023/07/30 06:24:51;;;;;;;0.00;0.00;;;17.70;78.90;;;;;;5012365;28;20499;-73
2023/07/30 06:27:17;;;;;;;0.05;0.05;;;17.60;78.70;;;;;;5009980;28;20060;-74
2023/07/30 06:29:42;;;;;;;0.00;0.00;;;17.60;78.20;;;;;;5011375;28;20046;-74
2023/07/30 06:32:08;;;;;;;1.23;0.80;;;17.60;78.50;;;;;;5011511;28;20034;-74
2023/07/30 06:34:33;;;;;;;0.00;0.00;;;17.60;77.80;;;;;;4990174;28;20479;-73
2023/07/30 06:36:59;;;;;;;0.00;0.00;;;17.60;77.50;;;;;;4999632;28;20045;-74
2023/07/30 06:39:25;;;;;;;0.00;0.00;;;17.70;77.80;;;;;;5010156;28;20045;-74
2023/07/30 06:41:50;;;;;;;0.00;0.00;;;17.70;77.60;;;;;;5000187;28;20072;-74
2023/07/30 06:44:16;;;;;;;0.00;0.00;;;17.70;77.70;;;;;;5006045;28;20108;-74
2023/07/30 06:46:41;;;;;;;0.00;0.00;;;17.70;77.90;;;;;;5007822;28;20165;-75
2023/07/30 06:49:07;;;;;;;0.00;0.00;;;17.70;77.30;;;;;;5007110;28;20053;-75
2023/07/30 06:51:32;;;;;;;0.00;0.00;;;17.80;78.10;;;;;;5001587;28;20569;-74
2023/07/30 06:53:58;;;;;;;6.38;1.92;;;17.90;77.10;;;;;;5001111;28;20401;-74
2023/07/30 06:56:23;;;;;;;0.00;0.00;;;17.80;76.10;;;;;;5010583;28;20057;-74
2023/07/30 06:58:49;;;;;;;0.00;0.00;;;17.90;76.00;;;;;;5009937;28;20408;-74
2023/07/30 07:01:14;;;;;;;4.28;1.35;;;18.00;75.50;;;;;;5009661;28;20105;-74
2023/07/30 07:03:40;;;;;;;0.88;0.88;;;18.10;75.00;;;;;;5009486;28;20505;-74
2023/07/30 07:06:06;;;;;;;0.00;0.00;;;18.10;74.70;;;;;;5010742;28;20076;-74
2023/07/30 07:08:31;;;;;;;0.10;0.10;;;18.20;74.40;;;;;;5010378;28;20064;-74
2023/07/30 07:10:57;;;;;;;0.00;0.00;;;18.20;74.40;;;;;;5008893;28;20053;-74
2023/07/30 07:13:22;;;;;;;0.00;0.00;;;18.10;73.80;;;;;;5009024;28;20042;-74
2023/07/30 07:15:48;;;;;;;0.00;0.00;;;18.10;73.00;;;;;;5009898;28;20774;-75
2023/07/30 07:18:13;;;;;;;0.00;0.00;;;18.10;72.60;;;;;;5009940;28;20046;-75
2023/07/30 07:20:39;;;;;;;0.00;0.00;;;18.10;73.10;;;;;;5010746;28;20082;-74
2023/07/30 07:23:04;;;;;;;0.20;0.20;;;18.10;73.00;;;;;;5007043;28;20140;-73
2023/07/30 07:25:30;;;;;;;0.00;0.00;;;18.00;73.10;;;;;;5009296;28;20426;-74
2023/07/30 07:27:56;;;;;;;0.00;0.00;;;18.00;73.70;;;;;;5009029;28;20058;-73
2023/07/30 07:30:21;;;;;;;0.00;0.00;;;18.00;73.90;;;;;;5007758;28;20053;-73
2023/07/30 07:32:50;;;;;;;0.40;0.40;;;18.00;74.00;;;;;;5009825;28;20053;-74
2023/07/30 07:35:18;;;;;;;0.28;0.28;;;18.00;74.10;;;;;;5010256;28;20533;-74
2023/07/30 07:37:43;;;;;;;0.00;0.00;;;18.00;74.30;;;;;;5009589;28;20046;-73
2023/07/30 07:40:09;;;;;;;0.00;0.00;;;18.00;74.30;;;;;;5009956;28;20483;-73
2023/07/30 07:42:35;;;;;;;0.00;0.00;;;18.00;74.20;;;;;;5010290;28;20135;-74
2023/07/30 07:45:01;;;;;;;0.10;0.10;;;18.10;74.50;;;;;;5010154;28;20081;-74
2023/07/30 07:47:26;;;;;;;0.00;0.00;;;18.10;74.00;;;;;;5008867;28;20078;-72
2023/07/30 07:49:52;;;;;;;0.03;0.03;;;18.10;74.40;;;;;;5010071;28;20052;-74
2023/07/30 07:52:19;;;;;;;0.47;0.47;;;18.10;73.20;;;;;;5009389;28;20050;-74
2023/07/30 07:54:45;;;;;;;0.10;0.10;;;18.10;74.00;;;;;;5007480;28;20124;-73
2023/07/30 07:57:10;;;;;;;0.43;0.43;;;18.10;74.70;;;;;;5003359;28;20121;-68
2023/07/30 07:59:36;;;;;;;0.00;0.00;;;18.20;75.50;;;;;;5007597;28;20530;-70
2023/07/30 08:02:02;;;;;;;0.00;0.00;;;18.20;75.60;;;;;;5007717;28;20058;-69
2023/07/30 08:04:27;;;;;;;0.20;0.20;;;18.20;76.00;;;;;;5004322;28;20049;-70
2023/07/30 08:06:53;;;;;;;0.00;0.00;;;18.20;75.70;;;;;;5009236;28;20040;-69
2023/07/30 08:09:18;;;;;;;0.00;0.00;;;18.20;76.00;;;;;;5009101;28;20391;-69
2023/07/30 08:11:44;;;;;;;0.00;0.00;;;18.10;76.50;;;;;;5002592;28;20137;-69
2023/07/30 08:14:10;;;;;;;0.00;0.00;;;18.10;76.30;;;;;;5009882;28;20128;-69
2023/07/30 08:16:35;;;;;;;0.10;0.10;;;18.10;75.80;;;;;;5010191;28;20049;-70
2023/07/30 08:19:01;;;;;;;0.00;0.00;;;18.10;76.00;;;;;;5010288;28;20564;-70
2023/07/30 08:21:26;;;;;;;6.63;0.47;;;18.10;76.30;;;;;;5007275;28;20580;-68
2023/07/30 08:23:52;;;;;;;0.00;0.00;;;18.10;76.30;;;;;;5009717;28;20042;-68
2023/07/30 08:26:18;;;;;;;0.30;0.30;;;18.20;76.20;;;;;;5004999;28;20121;-67
2023/07/30 08:28:44;;;;;;;0.00;0.00;;;18.10;76.10;;;;;;5008671;28;20128;-67
2023/07/30 08:31:09;;;;;;;0.15;0.15;;;18.10;75.90;;;;;;5000678;28;20450;-67
2023/07/30 08:33:35;;;;;;;0.00;0.00;;;18.10;76.30;;;;;;5007492;28;20045;-67
2023/07/30 08:36:00;;;;;;;0.00;0.00;;;18.10;76.30;;;;;;5008298;28;20034;-67
2023/07/30 08:38:27;;;;;;;0.00;0.00;;;18.10;76.10;;;;;;5008356;28;20121;-67
2023/07/30 08:40:53;;;;;;;0.15;0.15;;;18.00;76.60;;;;;;5006419;28;20088;-69
2023/07/30 08:43:19;;;;;;;0.00;0.00;;;18.00;77.10;;;;;;5003791;28;20104;-66
2023/07/30 08:45:44;;;;;;;0.00;0.00;;;18.00;77.40;;;;;;5009939;28;20625;-71
2023/07/30 08:48:10;;;;;;;0.00;0.00;;;18.00;77.70;;;;;;5008951;28;20045;-69
2023/07/30 08:50:37;;;;;;;0.95;0.95;;;18.00;78.00;;;;;;5008430;28;20060;-69
2023/07/30 08:53:03;;;;;;;0.00;0.00;;;18.10;78.70;;;;;;5009500;28;20049;-69
2023/07/30 08:55:32;;;;;;;0.85;0.52;;;18.10;78.80;;;;;;5009927;28;20050;-70
2023/07/30 08:58:00;;;;;;;0.00;0.00;;;18.10;79.60;;;;;;4991892;28;20045;-69
2023/07/30 09:00:30;;;;;;;0.00;0.00;;;18.10;79.30;;;;;;5009024;28;20100;-70
2023/07/30 09:02:59;;;;;;;0.00;0.00;;;18.20;79.30;;;;;;5004722;28;20053;-68
2023/07/30 09:05:28;;;;;;;0.00;0.00;;;18.20;79.30;;;;;;5006056;28;20037;-69
2023/07/30 09:07:53;;;;;;;0.00;0.00;;;18.20;79.70;;;;;;5007633;28;20049;-69
2023/07/30 09:10:19;;;;;;;0.00;0.00;;;18.30;79.00;;;;;;5008251;28;20069;-70
2023/07/30 09:12:44;;;;;;;0.00;0.00;;;18.30;79.30;;;;;;5008513;28;20041;-70
2023/07/30 09:15:10;;;;;;;3.60;1.20;;;18.40;78.80;;;;;;5006983;28;20095;-70
2023/07/30 09:17:36;;;;;;;0.10;0.10;;;18.40;78.90;;;;;;5004851;28;20046;-69
2023/07/30 09:20:03;;;;;;;0.00;0.00;;;18.40;78.30;;;;;;5002269;28;20038;-70
2023/07/30 09:22:33;;;;;;;3.20;0.75;;;18.50;78.60;;;;;;5005654;28;20701;-69
2023/07/30 09:25:02;;;;;;;0.20;0.20;;;18.60;77.90;;;;;;5008033;28;20033;-70
2023/07/30 09:27:28;;;;;;;0.13;0.13;;;18.60;78.10;;;;;;5007865;28;20121;-70
2023/07/30 09:29:56;;;;;;;6.97;2.17;;;18.70;78.10;;;;;;5008143;28;20096;-70
2023/07/30 09:32:33;;;;;;;0.00;0.00;;;18.90;76.80;;;;;;5008259;28;20399;-70
2023/07/30 09:35:06;;;;;;;0.00;0.00;;;19.00;76.80;;;;;;5009565;28;20038;-70
2023/07/30 09:37:35;;;;;;;0.00;0.00;;;19.10;75.20;;;;;;5009626;28;20050;-70
2023/07/30 09:40:02;;;;;;;0.20;0.20;;;19.30;75.50;;;;;;5008921;28;20049;-70
2023/07/30 09:42:28;;;;;;;0.00;0.00;;;19.50;75.00;;;;;;5007510;28;20168;-70
2023/07/30 09:44:58;;;;;;;0.75;0.75;;;19.30;74.00;;;;;;5004718;28;20038;-70
2023/07/30 09:47:26;;;;;;;0.28;0.28;;;19.20;73.30;;;;;;5007203;28;20050;-69
2023/07/30 09:49:53;;;;;;;0.00;0.00;;;19.00;73.50;;;;;;5007620;28;20049;-69
2023/07/30 09:52:20;;;;;;;0.00;0.00;;;19.00;72.90;;;;;;5007697;28;20050;-69
2023/07/30 09:54:46;;;;;;;0.00;0.00;;;19.10;73.10;;;;;;5007568;28;20049;-70
2023/07/30 09:57:12;;;;;;;0.10;0.10;;;19.10;73.30;;;;;;5007707;28;20618;-70
2023/07/30 09:59:38;;;;;;;0.00;0.00;;;19.30;72.30;;;;;;5009613;28;20045;-72
2023/07/30 10:02:05;;;;;;;0.10;0.10;;;19.30;73.10;;;;;;5009183;28;20068;-71
2023/07/30 10:04:31;;;;;;;0.30;0.22;;;19.10;73.10;;;;;;5000692;28;20065;-71
2023/07/30 10:07:08;;;;;;;0.00;0.00;;;19.10;74.30;;;;;;4995731;28;20069;-70
2023/07/30 10:09:45;;;;;;;0.03;0.03;;;19.20;72.70;;;;;;5000154;28;20052;-71
2023/07/30 10:12:16;;;;;;;0.00;0.00;;;19.20;72.80;;;;;;4993321;28;20062;-75
2023/07/30 10:14:43;;;;;;;0.00;0.00;;;19.20;70.50;;;;;;5010969;28;20137;-71
2023/07/30 10:17:12;;;;;;;0.00;0.00;;;19.10;69.70;;;;;;5007655;28;20058;-71
2023/07/30 10:19:38;;;;;;;0.00;0.00;;;19.00;71.00;;;;;;4992957;28;20145;-71
2023/07/30 10:22:12;;;;;;;0.00;0.00;;;19.10;71.00;;;;;;5000350;28;20168;-71
2023/07/30 10:24:39;;;;;;;0.00;0.00;;;19.10;70.70;;;;;;5006808;28;20057;-70
2023/07/30 10:27:12;;;;;;;0.00;0.00;;;19.30;72.20;;;;;;5008943;28;20063;-69
2023/07/30 10:29:41;;;;;;;0.00;0.00;;;19.50;71.70;;;;;;5006658;28;20062;-69
2023/07/30 10:32:07;;;;;;;0.52;0.52;;;19.70;70.70;;;;;;5011034;28;20065;-69
2023/07/30 10:34:46;;;;;;;0.00;0.00;;;19.80;70.40;;;;;;5012070;28;20042;-75
2023/07/30 10:37:18;;;;;;;0.00;0.00;;;19.80;70.10;;;;;;5003519;28;20046;-71
2023/07/30 10:39:47;;;;;;;0.00;0.00;;;19.80;69.60;;;;;;5008060;28;20844;-69
2023/07/30 10:42:18;;;;;;;0.00;0.00;;;19.80;68.50;;;;;;5010991;28;20108;-68
2023/07/30 10:44:46;;;;;;;0.00;0.00;;;19.80;69.20;;;;;;5011088;28;20050;-69
2023/07/30 10:47:12;;;;;;;0.00;0.00;;;19.90;69.10;;;;;;5010542;28;20096;-68
2023/07/30 10:49:40;;;;;;;0.00;0.00;;;19.80;69.10;;;;;;5010703;28;20526;-68
2023/07/30 10:52:06;;;;;;;0.32;0.32;;;19.60;68.80;;;;;;5009060;28;20434;-68
2023/07/30 10:54:35;;;;;;;0.30;0.30;;;19.50;69.70;;;;;;5008105;28;20056;-69
2023/07/30 10:57:01;;;;;;;0.00;0.00;;;19.40;70.90;;;;;;5009726;28;20429;-69
2023/07/30 10:59:32;;;;;;;0.65;0.65;;;19.20;71.40;;;;;;5010479;28;20038;-69
2023/07/30 11:01:58;;;;;;;0.10;0.10;;;19.20;71.30;;;;;;5006675;28;20054;-69
2023/07/30 11:04:23;;;;;;;0.00;0.00;;;19.40;70.60;;;;;;5003107;28;20411;-68
2023/07/30 11:06:51;;;;;;;0.00;0.00;;;19.40;70.30;;;;;;5005632;28;20054;-69
2023/07/30 11:09:21;;;;;;;0.00;0.00;;;19.50;69.20;;;;;;5005341;28;20048;-69
2023/07/30 11:11:47;;;;;;;0.20;0.20;;;19.60;70.10;;;;;;4991273;28;20090;-69
2023/07/30 11:14:17;;;;;;;0.43;0.38;;;19.80;68.30;;;;;;4991434;28;20049;-69
2023/07/30 11:16:51;;;;;;;0.00;0.00;;;19.80;68.80;;;;;;4991698;28;20046;-69
2023/07/30 11:19:17;;;;;;;0.00;0.00;;;19.60;69.70;;;;;;4974309;28;20507;-69
2023/07/30 11:21:52;;;;;;;0.00;0.00;;;19.50;71.20;;;;;;4991583;28;20573;-69
2023/07/30 11:24:18;;;;;;;0.00;0.00;;;19.20;72.00;;;;;;4992780;28;20105;-69
2023/07/30 11:26:44;;;;;;;0.00;0.00;;;19.00;73.90;;;;;;5008953;28;20054;-68
2023/07/30 11:29:16;;;;;;;0.00;0.00;;;18.80;75.70;;;;;;5003690;28;20128;-68
2023/07/30 11:31:46;;;;;;;0.00;0.00;;;18.60;77.40;;;;;;5011222;28;20502;-68
2023/07/30 11:34:16;;;;;;;0.00;0.00;;;18.40;78.30;;;;;;5010796;28;20038;-68
2023/07/30 11:36:43;;;;;;;0.13;0.08;;;18.30;78.20;;;;;;5005834;28;20061;-72
2023/07/30 11:39:09;;;;;;;0.00;0.00;;;18.30;79.40;;;;;;5009012;28;20133;-68
2023/07/30 11:41:36;;;;;;;0.00;0.00;;;18.50;81.80;;;;;;5009452;28;20096;-68
2023/07/30 11:44:02;;;;;;;0.00;0.00;;;18.60;82.10;;;;;;5003975;28;20038;-68
2023/07/30 11:46:29;;;;;;;0.63;0.30;;;18.70;81.30;;;;;;5005260;28;20074;-68
2023/07/30 11:49:17;;;;;;;0.00;0.00;;;18.70;80.50;;;;;;4990692;28;20550;-68
2023/07/30 11:51:43;;;;;;;0.00;0.00;;;18.60;79.10;;;;;;5008455;28;20136;-69
2023/07/30 11:54:24;;;;;;;0.00;0.00;;;18.50;77.80;;;;;;4999561;28;20121;-68
2023/07/30 11:56:54;;;;;;;;;;;18.50;78.20;;;;;;5008276;28;20049;-68
2023/07/30 11:59:21;;;;;;;0.00;0.00;;;18.70;77.60;;;;;;5010087;28;19952;-69
2023/07/30 12:01:47;;;;;;;0.40;0.40;;;19.00;76.60;;;;;;5010433;28;20045;-69
2023/07/30 12:04:12;;;;;;;0.00;0.00;;;19.20;73.30;;;;;;5010416;28;20045;-68
2023/07/30 12:06:42;;;;;;;0.00;0.00;;;19.30;71.60;;;;;;5009628;28;20046;-66
2023/07/30 12:09:13;;;;;;;0.80;0.40;;;19.30;72.20;;;;;;5009857;28;20522;-66
2023/07/30 12:12:08;;;;;;;0.00;0.00;;;19.40;71.00;;;;;;5010467;28;20168;-70
2023/07/30 12:14:49;;;;;;;0.68;0.25;;;19.60;69.50;;;;;;4995399;28;20208;-69
2023/07/30 12:17:15;;;;;;;0.87;0.63;;;19.60;68.70;;;;;;5002724;28;20046;-67
2023/07/30 12:19:44;;;;;;;0.00;0.00;;;19.60;70.20;;;;;;5009426;28;20107;-67
2023/07/30 12:22:10;;;;;;;0.00;0.00;;;19.40;70.80;;;;;;5008284;28;20045;-67
2023/07/30 12:24:36;;;;;;;0.00;0.00;;;19.20;70.80;;;;;;5009895;28;20053;-69
2023/07/30 12:27:01;;;;;;;0.00;0.00;;;19.10;71.00;;;;;;5004647;28;20058;-71
2023/07/30 12:29:27;;;;;;;0.00;0.00;;;19.20;72.10;;;;;;4997417;28;20605;-69
2023/07/30 12:31:55;;;;;;;0.08;0.08;;;19.30;72.00;;;;;;5000571;28;20085;-70
2023/07/30 12:34:23;;;;;;;0.32;0.32;;;19.50;70.70;;;;;;5008136;28;20673;-70
2023/07/30 12:36:48;;;;;;;0.00;0.00;;;19.50;71.20;;;;;;4993990;28;20054;-71
2023/07/30 12:39:14;;;;;;;0.40;0.40;;;19.50;68.30;;;;;;4993726;28;20053;-70
2023/07/30 12:41:39;;;;;;;0.00;0.00;;;19.40;69.10;;;;;;5009610;28;20049;-66
2023/07/30 12:44:05;;;;;;;0.10;0.10;;;19.50;69.80;;;;;;5008062;28;20046;-68